createdAt,value
2019-01-03T00:02:43.726Z,51.50
2019-01-03T00:05:30.471Z,51.80
2019-01-03T00:08:17.083Z,52.40
2019-01-03T00:11:03.727Z,53.80
2019-01-03T00:13:50.449Z,54.50
2019-01-03T00:16:44.654Z,55.00
2019-01-03T00:19:33.048Z,55.40
2019-01-03T00:22:39.385Z,54.30
2019-01-03T00:25:33.462Z,55.40
2019-01-03T00:28:21.818Z,54.90
2019-01-03T00:31:10.182Z,55.00
2019-01-03T00:33:56.741Z,54.80
2019-01-03T00:36:43.533Z,55.00
2019-01-03T00:39:30.207Z,54.00
2019-01-03T00:42:17.150Z,51.80
2019-01-03T00:45:03.808Z,50.10
2019-01-03T00:47:50.566Z,48.50
2019-01-03T00:50:50.861Z,48.10
2019-01-03T00:53:39.290Z,47.90
2019-01-03T00:56:43.358Z,46.90
2019-01-03T00:59:49.725Z,46.30
2019-01-03T01:02:37.482Z,45.10
2019-01-03T01:05:28.597Z,43.00
2019-01-03T01:08:19.891Z,42.00
2019-01-03T01:11:06.768Z,42.10
2019-01-03T01:14:05.691Z,42.10
2019-01-03T01:17:02.953Z,41.80
2019-01-03T01:20:03.240Z,41.50
2019-01-03T01:22:54.433Z,41.70
2019-01-03T01:25:54.370Z,40.90
2019-01-03T01:28:50.373Z,41.50
2019-01-03T01:31:41.309Z,42.00
2019-01-03T01:34:38.528Z,42.40
2019-01-03T01:37:29.583Z,41.80
2019-01-03T01:40:16.380Z,42.30
2019-01-03T01:43:03.083Z,42.90
2019-01-03T01:45:45.545Z,42.90
2019-01-03T01:48:39.860Z,42.90
2019-01-03T01:51:37.171Z,42.50
2019-01-03T01:54:40.444Z,42.50
2019-01-03T01:57:35.476Z,42.90
2019-01-03T02:00:33.403Z,42.70
2019-01-03T02:03:21.785Z,43.70
2019-01-03T02:06:11.423Z,43.90
2019-01-03T02:08:58.266Z,44.00
2019-01-03T02:11:49.455Z,44.90
2019-01-03T02:14:36.494Z,45.60
2019-01-03T02:17:24.868Z,46.30
2019-01-03T02:20:23.694Z,48.10
2019-01-03T02:23:12.104Z,49.00
2019-01-03T02:26:03.306Z,50.40
2019-01-03T02:28:50.082Z,46.50
2019-01-03T02:31:56.452Z,50.30
2019-01-03T02:34:47.657Z,53.20
2019-01-03T02:37:38.010Z,55.00
2019-01-03T02:40:32.340Z,56.30
2019-01-03T02:43:19.731Z,56.30
2019-01-03T02:46:06.624Z,59.10
2019-01-03T02:49:12.024Z,57.80
2019-01-03T02:52:06.209Z,57.30
2019-01-03T02:55:00.361Z,54.60
2019-01-03T02:57:47.075Z,51.40
2019-01-03T03:00:47.460Z,55.00
2019-01-03T03:03:36.601Z,57.40
2019-01-03T03:06:23.791Z,58.50
2019-01-03T03:09:17.921Z,57.00
2019-01-03T03:12:18.272Z,57.00
2019-01-03T03:15:18.422Z,56.00
2019-01-03T03:18:12.756Z,61.60
2019-01-03T03:20:59.570Z,60.90
2019-01-03T03:23:47.175Z,65.20
2019-01-03T03:26:33.929Z,64.70
2019-01-03T03:29:37.241Z,64.90
2019-01-03T03:32:23.990Z,65.20
2019-01-03T03:35:10.907Z,62.00
2019-01-03T03:37:58.045Z,68.20
2019-01-03T03:40:44.573Z,67.90
2019-01-03T03:43:31.232Z,68.00
2019-01-03T03:46:28.484Z,68.70
2019-01-03T03:49:15.192Z,69.30
2019-01-03T03:52:01.964Z,70.90
2019-01-03T03:54:56.257Z,73.30
2019-01-03T03:57:43.079Z,73.20
2019-01-03T04:00:43.473Z,75.40
2019-01-03T04:03:39.924Z,78.70
2019-01-03T04:06:26.629Z,79.80
2019-01-03T04:09:12.009Z,80.50
2019-01-03T04:11:58.775Z,81.50
2019-01-03T04:14:52.917Z,81.30
2019-01-03T04:17:56.254Z,81.80
2019-01-03T04:20:43.545Z,81.80
2019-01-03T04:23:36.043Z,80.20
2019-01-03T04:26:27.354Z,75.60
2019-01-03T04:29:27.785Z,73.00
2019-01-03T04:32:21.969Z,69.30
2019-01-03T04:35:13.184Z,70.60
2019-01-03T04:38:10.397Z,66.00
2019-01-03T04:41:13.864Z,63.80
2019-01-03T04:44:11.104Z,65.60
2019-01-03T04:47:05.458Z,71.20
2019-01-03T04:50:08.809Z,74.00
2019-01-03T04:52:56.952Z,73.50
2019-01-03T04:55:46.531Z,77.90
2019-01-03T04:58:52.914Z,77.90
2019-01-03T05:02:23.742Z,77.40
2019-01-03T05:05:19.093Z,78.50
2019-01-03T05:08:01.644Z,78.60
2019-01-03T05:10:58.771Z,78.00
2019-01-03T05:13:45.496Z,73.10
2019-01-03T05:16:32.254Z,69.00
2019-01-03T05:19:18.956Z,72.00
2019-01-03T05:22:10.375Z,73.70
2019-01-03T05:25:01.701Z,77.30
2019-01-03T05:27:50.033Z,81.20
2019-01-03T05:30:56.329Z,82.80
2019-01-03T05:33:57.321Z,82.20
2019-01-03T05:36:45.989Z,82.40
2019-01-03T05:39:32.754Z,82.70
2019-01-03T05:42:19.206Z,84.90
2019-01-03T05:45:06.034Z,85.40
2019-01-03T05:47:54.435Z,84.50
2019-01-03T05:50:41.191Z,85.50
2019-01-03T05:53:31.906Z,85.40
2019-01-03T05:56:21.188Z,86.00
2019-01-03T05:59:21.526Z,86.20
2019-01-03T06:02:21.752Z,86.20
2019-01-03T06:05:21.985Z,86.10
2019-01-03T06:08:13.097Z,86.80
2019-01-03T06:10:59.930Z,86.80
2019-01-03T06:13:46.653Z,86.90
2019-01-03T06:16:45.061Z,87.90
2019-01-03T06:19:39.211Z,87.10
2019-01-03T06:22:25.924Z,84.70
2019-01-03T06:25:20.156Z,85.40
2019-01-03T06:28:11.193Z,78.70
2019-01-03T06:31:05.454Z,86.20
2019-01-03T06:33:52.360Z,85.80
2019-01-03T06:36:43.507Z,85.60
2019-01-03T06:39:28.838Z,84.90
2019-01-03T06:42:19.921Z,86.10
2019-01-03T06:45:20.151Z,84.40
2019-01-03T06:48:06.996Z,81.00
2019-01-03T06:51:01.222Z,79.90
2019-01-03T06:54:01.556Z,78.10
2019-01-03T06:57:01.651Z,81.80
2019-01-03T06:59:48.537Z,82.20
2019-01-03T07:02:35.241Z,83.00
2019-01-03T07:05:22.022Z,82.20
2019-01-03T07:08:19.236Z,83.20
2019-01-03T07:11:01.041Z,83.70
2019-01-03T07:13:47.883Z,83.70
2019-01-03T07:16:34.731Z,83.90
2019-01-03T07:19:38.106Z,86.10
2019-01-03T07:22:25.551Z,85.70
2019-01-03T07:25:16.947Z,87.10
2019-01-03T07:28:14.167Z,86.50
2019-01-03T07:31:01.235Z,88.40
2019-01-03T07:33:55.500Z,88.00
2019-01-03T07:36:58.825Z,88.10
2019-01-03T07:40:05.048Z,88.30
2019-01-03T07:42:57.555Z,87.10
2019-01-03T07:45:46.278Z,86.20
2019-01-03T07:48:37.518Z,84.30
2019-01-03T07:51:24.230Z,84.40
2019-01-03T07:54:11.181Z,83.10
2019-01-03T07:57:08.525Z,80.80
2019-01-03T08:00:05.921Z,68.70
2019-01-03T08:02:52.580Z,76.40
2019-01-03T08:05:39.607Z,78.50
2019-01-03T08:08:26.295Z,78.60
2019-01-03T08:11:06.607Z,66.80
2019-01-03T08:14:03.880Z,56.60
2019-01-03T08:16:50.586Z,50.80
2019-01-03T08:19:56.821Z,48.10
2019-01-03T08:22:47.997Z,47.80
2019-01-03T08:25:42.353Z,49.30
2019-01-03T08:28:42.684Z,49.20
2019-01-03T08:31:43.279Z,50.10
2019-01-03T08:34:31.733Z,51.90
2019-01-03T08:37:24.306Z,53.20
2019-01-03T08:40:12.805Z,51.90
2019-01-03T08:42:59.641Z,52.10
2019-01-03T08:45:48.112Z,50.90
2019-01-03T08:48:34.975Z,51.90
2019-01-03T08:51:21.864Z,53.30
2019-01-03T08:54:08.733Z,53.60
2019-01-03T08:56:57.911Z,54.90
2019-01-03T08:59:52.266Z,54.60
2019-01-03T09:02:43.433Z,53.20
2019-01-03T09:05:30.291Z,54.60
2019-01-03T09:08:17.090Z,51.70
2019-01-03T09:11:14.301Z,50.40
2019-01-03T09:14:07.085Z,49.10
2019-01-03T09:16:53.835Z,47.90
2019-01-03T09:19:45.083Z,46.80
2019-01-03T09:22:40.313Z,46.50
2019-01-03T09:25:29.721Z,45.60
2019-01-03T09:28:16.625Z,43.90
2019-01-03T09:31:20.017Z,44.40
2019-01-03T09:34:06.601Z,41.70
2019-01-03T09:36:57.834Z,43.30
2019-01-03T09:39:57.989Z,41.30
2019-01-03T09:42:46.376Z,42.00
2019-01-03T09:45:15.947Z,42.70
2019-01-03T09:47:45.458Z,40.80
2019-01-03T09:50:15.075Z,40.90
2019-01-03T09:52:47.307Z,41.40
2019-01-03T09:55:16.835Z,41.00
2019-01-03T09:57:46.767Z,40.80
2019-01-03T10:00:16.368Z,40.20
2019-01-03T10:02:45.892Z,40.50
2019-01-03T10:05:20.119Z,40.30
2019-01-03T10:07:49.596Z,39.40
2019-01-03T10:10:19.070Z,39.40
2019-01-03T10:12:48.846Z,38.70
2019-01-03T10:15:18.394Z,38.60
2019-01-03T10:17:48.946Z,36.90
2019-01-03T10:20:18.333Z,36.80
2019-01-03T10:22:47.733Z,35.80
2019-01-03T10:25:17.182Z,37.20
2019-01-03T10:27:46.604Z,36.80
2019-01-03T10:30:16.075Z,34.40
2019-01-03T10:32:45.523Z,35.90
2019-01-03T10:35:15.045Z,36.10
2019-01-03T10:37:44.377Z,36.90
2019-01-03T10:40:13.799Z,37.00
2019-01-03T10:42:43.197Z,35.20
2019-01-03T10:45:12.655Z,36.50
2019-01-03T10:47:42.186Z,35.60
2019-01-03T10:50:11.577Z,34.40
2019-01-03T10:52:41.072Z,33.40
2019-01-03T10:55:10.535Z,34.30
2019-01-03T10:57:39.974Z,34.80
2019-01-03T11:00:09.600Z,35.20
2019-01-03T11:02:39.016Z,34.70
2019-01-03T11:05:08.509Z,36.70
2019-01-03T11:07:37.987Z,36.40
2019-01-03T11:10:07.887Z,35.10
2019-01-03T11:12:37.410Z,35.10
2019-01-03T11:15:09.069Z,35.90
2019-01-03T11:17:38.461Z,36.90
2019-01-03T11:20:07.981Z,36.10
2019-01-03T11:22:37.431Z,36.20
2019-01-03T11:25:07.043Z,35.50
2019-01-03T11:27:58.856Z,35.40
2019-01-03T11:30:29.961Z,35.00
2019-01-03T11:32:59.360Z,36.10
2019-01-03T11:35:28.813Z,35.30
2019-01-03T11:37:58.279Z,34.00
2019-01-03T11:40:27.659Z,33.00
2019-01-03T11:42:57.147Z,32.20
2019-01-03T11:45:26.490Z,32.90
2019-01-03T11:47:55.877Z,34.20
2019-01-03T11:50:25.297Z,35.40
2019-01-03T11:52:54.732Z,36.90
2019-01-03T11:55:24.215Z,37.90
2019-01-03T11:57:53.622Z,41.80
2019-01-03T12:00:23.046Z,43.90
2019-01-03T12:02:52.445Z,42.50
2019-01-03T12:05:21.888Z,42.50
2019-01-03T12:07:51.370Z,40.30
2019-01-03T12:10:20.754Z,40.30
2019-01-03T12:12:50.206Z,39.80
2019-01-03T12:15:19.607Z,39.20
2019-01-03T12:17:49.041Z,40.00
2019-01-03T12:20:18.459Z,39.60
2019-01-03T12:22:47.843Z,40.30
2019-01-03T12:25:17.289Z,40.00
2019-01-03T12:27:46.718Z,39.90
2019-01-03T12:30:16.152Z,38.40
2019-01-03T12:32:45.677Z,37.20
2019-01-03T12:35:15.117Z,39.00
2019-01-03T12:37:44.523Z,38.80
2019-01-03T12:40:15.051Z,40.10
2019-01-03T12:42:44.571Z,42.50
2019-01-03T12:45:14.078Z,43.10
2019-01-03T12:47:43.472Z,41.90
2019-01-03T12:50:12.989Z,41.40
2019-01-03T12:52:42.470Z,40.30
2019-01-03T12:55:11.931Z,42.10
2019-01-03T12:57:41.393Z,39.60
2019-01-03T13:00:12.954Z,39.40
2019-01-03T13:02:42.406Z,39.30
2019-01-03T13:05:11.843Z,40.30
2019-01-03T13:07:41.276Z,39.10
2019-01-03T13:10:10.833Z,38.10
2019-01-03T13:12:40.230Z,38.20
2019-01-03T13:15:09.999Z,38.90
2019-01-03T13:17:39.415Z,39.30
2019-01-03T13:20:09.641Z,37.60
2019-01-03T13:22:39.022Z,38.40
2019-01-03T13:25:08.400Z,39.90
2019-01-03T13:27:37.902Z,40.40
2019-01-03T13:30:09.087Z,44.10
2019-01-03T13:32:38.521Z,45.40
2019-01-03T13:35:08.076Z,44.60
2019-01-03T13:37:37.479Z,43.90
2019-01-03T13:40:07.821Z,44.80
2019-01-03T13:42:37.283Z,47.70
2019-01-03T13:45:07.012Z,48.40
2019-01-03T13:47:36.350Z,49.60
2019-01-03T13:50:06.647Z,52.30
2019-01-03T13:52:36.101Z,50.70
2019-01-03T13:55:05.572Z,50.80
2019-01-03T13:57:34.970Z,49.40
2019-01-03T14:00:04.813Z,49.00
2019-01-03T14:02:34.215Z,49.00
2019-01-03T14:05:03.676Z,50.00
2019-01-03T14:07:33.171Z,51.40
2019-01-03T14:10:02.562Z,52.20
2019-01-03T14:12:31.883Z,53.30
2019-01-03T14:15:01.343Z,53.00
2019-01-03T14:17:30.758Z,52.90
2019-01-03T14:20:00.281Z,54.60
2019-01-03T14:22:29.653Z,55.00
2019-01-03T14:24:59.042Z,53.90
2019-01-03T14:27:28.582Z,53.20
2019-01-03T14:29:58.018Z,52.30
2019-01-03T14:32:27.526Z,53.60
2019-01-03T14:34:56.988Z,53.40
2019-01-03T14:37:26.403Z,54.60
2019-01-03T14:39:55.827Z,55.40
2019-01-03T14:42:25.251Z,55.30
2019-01-03T14:44:54.633Z,55.00
2019-01-03T14:47:23.988Z,56.30
2019-01-03T14:49:53.457Z,57.40
2019-01-03T14:52:22.972Z,58.10
2019-01-03T14:54:52.394Z,58.10
2019-01-03T14:57:21.817Z,58.90
2019-01-03T14:59:51.207Z,60.40
2019-01-03T15:02:20.673Z,62.20
2019-01-03T15:04:50.125Z,65.30
2019-01-03T15:07:19.566Z,66.90
2019-01-03T15:09:48.979Z,68.20
2019-01-03T15:12:18.417Z,69.40
2019-01-03T15:14:47.962Z,70.00
2019-01-03T15:17:17.663Z,71.50
2019-01-03T15:19:47.017Z,73.70
2019-01-03T15:22:16.515Z,74.50
2019-01-03T15:24:45.913Z,74.40
2019-01-03T15:27:15.323Z,74.10
2019-01-03T15:29:44.688Z,72.80
2019-01-03T15:32:14.051Z,72.00
2019-01-03T15:34:44.727Z,71.70
2019-01-03T15:37:15.128Z,71.20
2019-01-03T15:39:44.569Z,71.70
2019-01-03T15:42:13.985Z,70.20
2019-01-03T15:44:43.465Z,70.90
2019-01-03T15:47:12.901Z,71.30
2019-01-03T15:49:42.283Z,70.40
2019-01-03T15:52:11.705Z,69.30
2019-01-03T15:54:41.517Z,68.70
2019-01-03T15:57:10.908Z,68.70
2019-01-03T15:59:40.346Z,69.60
2019-01-03T16:02:09.814Z,69.30
2019-01-03T16:04:39.278Z,70.30
2019-01-03T16:07:08.702Z,71.80
2019-01-03T16:09:38.085Z,70.60
2019-01-03T16:12:07.556Z,72.40
2019-01-03T16:14:37.090Z,72.30
2019-01-03T16:17:06.579Z,72.40
2019-01-03T16:19:35.990Z,72.70
2019-01-03T16:22:05.459Z,73.10
2019-01-03T16:24:43.414Z,71.10
2019-01-03T16:27:16.937Z,72.70
2019-01-03T16:29:46.414Z,67.90
2019-01-03T16:32:15.877Z,68.60
2019-01-03T16:34:45.347Z,66.50
2019-01-03T16:37:14.820Z,67.30
2019-01-03T16:39:44.306Z,68.10
2019-01-03T16:42:13.754Z,68.10
2019-01-03T16:44:43.243Z,67.00
2019-01-03T16:47:13.002Z,67.20
2019-01-03T16:49:42.592Z,68.70
2019-01-03T16:52:14.519Z,67.70
2019-01-03T16:54:43.943Z,67.00
2019-01-03T16:57:13.425Z,68.80
2019-01-03T16:59:42.830Z,68.70
2019-01-03T17:02:12.341Z,67.20
2019-01-03T17:04:41.768Z,65.70
2019-01-03T17:07:11.246Z,66.90
2019-01-03T17:09:40.644Z,65.30
2019-01-03T17:12:10.148Z,70.70
2019-01-03T17:14:39.659Z,68.50
2019-01-03T17:17:09.121Z,68.10
2019-01-03T17:19:38.628Z,67.20
2019-01-03T17:22:08.156Z,67.30
2019-01-03T17:24:37.554Z,67.50
2019-01-03T17:27:07.123Z,68.30
2019-01-03T17:29:36.531Z,67.20
2019-01-03T17:32:05.973Z,69.40
2019-01-03T17:34:35.359Z,70.40
2019-01-03T17:37:04.852Z,68.70
2019-01-03T17:39:34.333Z,67.90
2019-01-03T17:42:03.680Z,69.00
2019-01-03T17:44:33.364Z,71.10
2019-01-03T17:47:02.780Z,70.20
2019-01-03T17:49:32.220Z,71.20
2019-01-03T17:52:02.472Z,72.30
2019-01-03T17:54:31.855Z,70.80
2019-01-03T17:57:01.378Z,69.20
2019-01-03T17:59:30.833Z,71.50
2019-01-03T18:02:00.272Z,70.60
2019-01-03T18:04:29.736Z,69.60
2019-01-03T18:06:59.112Z,70.20
2019-01-03T18:09:28.532Z,67.00
2019-01-03T18:11:58.054Z,65.30
2019-01-03T18:14:27.606Z,67.80
2019-01-03T18:16:57.129Z,68.00
2019-01-03T18:19:26.942Z,68.30
2019-01-03T18:21:56.435Z,71.70
2019-01-03T18:24:25.808Z,65.10
2019-01-03T18:26:55.268Z,65.00
2019-01-03T18:29:24.742Z,65.60
2019-01-03T18:31:54.174Z,70.70
2019-01-03T18:34:24.854Z,70.10
2019-01-03T18:36:54.273Z,65.20
2019-01-03T18:39:23.765Z,65.50
2019-01-03T18:41:53.568Z,65.80
2019-01-03T18:44:22.995Z,65.10
2019-01-03T18:46:52.483Z,64.50
2019-01-03T18:49:21.918Z,63.70
2019-01-03T18:51:51.368Z,62.60
2019-01-03T18:54:20.826Z,62.20
2019-01-03T18:56:50.665Z,62.00
2019-01-03T18:59:20.214Z,61.60
2019-01-03T19:01:49.606Z,62.20
2019-01-03T19:04:19.106Z,63.80
2019-01-03T19:06:48.543Z,61.50
2019-01-03T19:09:17.982Z,61.70
2019-01-03T19:11:47.477Z,68.90
2019-01-03T19:14:16.976Z,63.30
2019-01-03T19:16:46.443Z,61.60
2019-01-03T19:19:15.872Z,60.90
2019-01-03T19:21:45.344Z,59.50
2019-01-03T19:24:14.796Z,60.60
2019-01-03T19:26:44.207Z,60.50
2019-01-03T19:29:13.709Z,61.20
2019-01-03T19:31:43.353Z,62.40
2019-01-03T19:34:12.865Z,61.30
2019-01-03T19:36:44.882Z,62.80
2019-01-03T19:39:14.329Z,64.20
2019-01-03T19:41:43.814Z,61.80
2019-01-03T19:44:13.255Z,63.00
2019-01-03T19:46:42.739Z,63.60
2019-01-03T19:49:15.501Z,63.80
2019-01-03T19:51:44.917Z,64.70
2019-01-03T19:54:14.285Z,65.20
2019-01-03T19:56:43.681Z,62.30
2019-01-03T19:59:13.175Z,62.90
2019-01-03T20:01:42.513Z,64.40
2019-01-03T20:04:12.032Z,63.60
2019-01-03T20:06:41.773Z,64.20
2019-01-03T20:09:11.185Z,63.70
2019-01-03T20:11:40.600Z,64.30
2019-01-03T20:14:10.168Z,65.00
2019-01-03T20:16:39.729Z,66.00
2019-01-03T20:19:12.110Z,66.30
2019-01-03T20:21:41.632Z,67.90
2019-01-03T20:24:11.208Z,68.10
2019-01-03T20:26:40.663Z,67.40
2019-01-03T20:29:10.281Z,67.40
2019-01-03T20:31:39.849Z,70.00
2019-01-03T20:34:09.348Z,69.90
2019-01-03T20:36:38.954Z,70.60
2019-01-03T20:39:08.489Z,68.10
2019-01-03T20:41:38.918Z,65.90
2019-01-03T20:44:08.435Z,69.80
2019-01-03T20:46:37.972Z,68.00
2019-01-03T20:49:07.529Z,68.20
2019-01-03T20:51:37.502Z,66.80
2019-01-03T20:54:07.136Z,66.60
2019-01-03T20:56:36.724Z,65.90
2019-01-03T20:59:06.310Z,65.40
2019-01-03T21:01:35.842Z,63.80
2019-01-03T21:04:05.380Z,65.40
2019-01-03T21:06:35.054Z,67.20
2019-01-03T21:09:05.165Z,64.70
2019-01-03T21:11:34.673Z,67.90
2019-01-03T21:14:04.613Z,64.50
2019-01-03T21:16:34.164Z,65.50
2019-01-03T21:19:03.787Z,66.40
2019-01-03T21:21:33.351Z,66.10
2019-01-03T21:24:02.869Z,67.20
2019-01-03T21:26:32.537Z,68.00
2019-01-03T21:29:02.058Z,67.20
2019-01-03T21:31:31.577Z,68.60
2019-01-03T21:34:01.480Z,68.20
2019-01-03T21:36:30.874Z,70.10
2019-01-03T21:39:00.597Z,70.40
2019-01-03T21:41:30.058Z,72.90
2019-01-03T21:43:59.917Z,73.40
2019-01-03T21:46:29.737Z,70.20
2019-01-03T21:48:59.108Z,68.90
2019-01-03T21:51:28.644Z,68.40
2019-01-03T21:53:58.098Z,70.30
2019-01-03T21:56:27.640Z,69.90
2019-01-03T21:58:57.155Z,68.80
2019-01-03T22:01:26.587Z,69.40
2019-01-03T22:03:56.879Z,70.50
2019-01-03T22:06:26.294Z,73.10
2019-01-03T22:08:55.729Z,72.50
2019-01-03T22:11:25.118Z,71.20
2019-01-03T22:13:54.514Z,72.30
2019-01-03T22:16:23.949Z,74.00
2019-01-03T22:18:53.352Z,77.50
2019-01-03T22:21:22.918Z,76.30
2019-01-03T22:23:52.351Z,78.50
2019-01-03T22:26:21.799Z,79.60
2019-01-03T22:28:51.258Z,80.70
2019-01-03T22:31:20.945Z,83.00
2019-01-03T22:33:50.501Z,85.40
2019-01-03T22:36:19.913Z,86.50
2019-01-03T22:38:49.271Z,87.30
2019-01-03T22:41:18.674Z,86.70
2019-01-03T22:43:48.099Z,85.60
2019-01-03T22:46:17.620Z,83.90
2019-01-03T22:48:47.112Z,83.90
2019-01-03T22:51:20.227Z,84.50
2019-01-03T22:53:49.069Z,84.00
2019-01-03T22:56:18.569Z,85.90
2019-01-03T22:58:48.074Z,85.60
2019-01-03T23:01:17.592Z,86.50
2019-01-03T23:03:47.025Z,87.90
2019-01-03T23:06:16.452Z,89.40
2019-01-03T23:08:45.889Z,90.40
2019-01-03T23:11:15.437Z,90.70
2019-01-03T23:13:44.950Z,91.00
2019-01-03T23:16:15.600Z,91.40
2019-01-03T23:18:45.328Z,91.40
2019-01-03T23:21:14.840Z,91.40
2019-01-03T23:23:44.460Z,91.90
2019-01-03T23:26:13.910Z,91.70
2019-01-03T23:28:43.413Z,92.00
2019-01-03T23:31:13.045Z,92.10
2019-01-03T23:33:42.526Z,92.30
2019-01-03T23:36:12.084Z,92.30
2019-01-03T23:38:45.028Z,92.30
2019-01-03T23:41:14.576Z,92.30
2019-01-03T23:43:44.172Z,91.30
2019-01-03T23:46:13.905Z,91.80
2019-01-03T23:48:43.365Z,91.70
2019-01-03T23:51:12.851Z,91.50
2019-01-03T23:53:42.473Z,92.10
2019-01-03T23:56:12.032Z,92.60
2019-01-03T23:58:41.451Z,92.40
